Time;durP1;ratioP1;P1;durP2;ratioP2;P2;SDS_P1;SDS_P2;PMS_P1;PMS_P2;Temp;Humidity;BMP_temperature;BMP_pressure;BME280_temperature;BME280_humidity;BME280_pressure;Samples;Min_cycle;Max_cycle;Signal;HPM_P1;HPM_P2
2024/01/17 00:00:39;;;;;;;30.73;21.63;;;12.80;73.70;;;;;;4593503;19;20397;-73
2024/01/17 00:02:33;;;;;;;31.47;22.10;;;12.80;73.70;;;;;;4593348;19;20428;-73
2024/01/17 00:04:09;;;;;;;29.23;22.17;;;12.80;73.90;;;;;;4593528;19;20393;-73
2024/01/17 00:05:43;;;;;;;27.87;22.17;;;12.80;73.70;;;;;;4592358;19;20473;-73
2024/01/17 00:07:17;;;;;;;32.67;22.63;;;12.80;73.70;;;;;;4593422;19;20401;-73
2024/01/17 00:08:53;;;;;;;30.13;22.47;;;12.80;73.70;;;;;;4593713;19;20895;-73
2024/01/17 00:10:26;;;;;;;29.70;22.97;;;12.80;73.80;;;;;;4593620;19;20435;-73
2024/01/17 00:12:03;;;;;;;35.10;24.57;;;12.80;73.80;;;;;;4593275;19;20423;-73
2024/01/17 00:13:42;;;;;;;34.35;22.92;;;12.80;74.20;;;;;;4593425;19;20675;-73
2024/01/17 00:15:18;;;;;;;32.63;23.57;;;12.80;73.50;;;;;;4593206;19;20016;-73
2024/01/17 00:16:51;;;;;;;36.30;24.77;;;12.80;73.60;;;;;;4593574;19;20377;-73
2024/01/17 00:18:26;;;;;;;33.13;23.87;;;12.80;73.50;;;;;;4591827;19;20439;-73
2024/01/17 00:20:02;;;;;;;33.60;23.77;;;12.80;73.50;;;;;;4592816;19;20413;-73
2024/01/17 00:21:36;;;;;;;29.87;22.13;;;12.80;73.60;;;;;;4591971;19;21022;-73
2024/01/17 00:23:12;;;;;;;33.63;24.73;;;12.80;73.70;;;;;;4593143;19;20998;-73
2024/01/17 00:24:46;;;;;;;29.20;21.83;;;12.80;73.60;;;;;;4593334;19;20412;-73
2024/01/17 00:26:20;;;;;;;30.90;21.67;;;12.80;73.80;;;;;;4592188;19;20484;-73
2024/01/17 00:27:55;;;;;;;27.77;20.67;;;12.80;74.00;;;;;;4593059;19;20389;-73
2024/01/17 00:29:31;;;;;;;33.47;22.70;;;12.70;74.80;;;;;;4593270;19;20432;-73
2024/01/17 00:31:05;;;;;;;30.57;22.33;;;12.70;75.30;;;;;;4592950;19;20429;-73
2024/01/17 00:32:40;;;;;;;30.27;22.00;;;12.70;75.40;;;;;;4592895;19;20396;-73
2024/01/17 00:34:15;;;;;;;30.53;21.43;;;12.80;75.50;;;;;;4591533;19;20440;-73
2024/01/17 00:35:49;;;;;;;29.13;22.03;;;12.80;75.50;;;;;;4592091;19;20453;-73
2024/01/17 00:37:24;;;;;;;31.33;23.43;;;12.80;75.30;;;;;;4593111;19;20426;-73
2024/01/17 00:38:59;;;;;;;31.63;23.70;;;12.80;75.20;;;;;;4592804;19;20504;-73
2024/01/17 00:40:35;;;;;;;33.20;23.00;;;12.80;75.10;;;;;;4593021;19;20404;-73
2024/01/17 00:42:10;;;;;;;31.70;23.53;;;12.80;75.10;;;;;;4592766;19;20489;-73
2024/01/17 00:43:44;;;;;;;30.63;22.53;;;12.80;75.00;;;;;;4592638;19;20397;-73
2024/01/17 00:45:17;;;;;;;28.40;21.40;;;12.80;75.10;;;;;;4592545;19;20393;-73
2024/01/17 00:46:53;;;;;;;29.33;21.33;;;12.80;75.10;;;;;;4592584;19;20427;-73
2024/01/17 00:48:27;;;;;;;29.00;22.23;;;12.80;75.10;;;;;;4592842;19;20480;-73
2024/01/17 00:50:03;;;;;;;34.13;23.50;;;12.80;75.00;;;;;;4591460;19;20738;-73
2024/01/17 00:51:38;;;;;;;29.63;23.17;;;12.80;75.10;;;;;;4591481;19;20365;-73
2024/01/17 00:53:11;;;;;;;29.57;22.50;;;12.80;75.10;;;;;;4592213;19;20385;-73
2024/01/17 00:54:46;;;;;;;30.37;22.67;;;12.80;75.10;;;;;;4592496;19;20515;-73
2024/01/17 00:56:22;;;;;;;32.47;23.17;;;12.80;75.20;;;;;;4591485;19;20436;-73
2024/01/17 00:57:56;;;;;;;33.83;23.80;;;12.80;75.10;;;;;;4592658;19;20393;-73
2024/01/17 00:59:30;;;;;;;32.90;23.93;;;12.80;75.30;;;;;;4592624;19;20393;-73
2024/01/17 01:16:46;;;;;;;31.90;23.40;;;12.90;75.90;;;;;;4562447;19;20569;-72
2024/01/17 01:18:21;;;;;;;32.70;23.10;;;12.90;76.00;;;;;;4592073;19;20398;-72
2024/01/17 01:19:55;;;;;;;31.67;23.13;;;12.90;76.00;;;;;;4591977;19;20465;-72
2024/01/17 01:21:30;;;;;;;31.53;22.77;;;12.90;76.10;;;;;;4590694;19;20401;-72
2024/01/17 01:23:05;;;;;;;30.70;23.00;;;12.90;76.10;;;;;;4591821;19;20890;-72
2024/01/17 01:24:40;;;;;;;31.77;22.93;;;12.90;76.20;;;;;;4592017;19;20442;-72
2024/01/17 01:26:14;;;;;;;30.13;22.33;;;12.90;76.20;;;;;;4591031;19;20471;-72
2024/01/17 01:27:50;;;;;;;32.30;22.93;;;12.90;76.20;;;;;;4590598;19;20518;-72
2024/01/17 01:29:24;;;;;;;31.60;23.33;;;12.90;76.30;;;;;;4590526;19;20425;-72
2024/01/17 01:30:58;;;;;;;31.67;22.70;;;12.90;76.50;;;;;;4591488;19;20495;-72
2024/01/17 01:32:33;;;;;;;28.83;21.87;;;12.90;76.50;;;;;;4590586;19;20887;-72
2024/01/17 01:34:08;;;;;;;32.57;22.27;;;12.90;76.40;;;;;;4590809;19;20393;-72
2024/01/17 01:35:44;;;;;;;35.80;24.10;;;12.90;76.50;;;;;;4591720;19;20712;-72
2024/01/17 01:37:19;;;;;;;30.53;23.50;;;12.80;76.80;;;;;;4590837;19;20706;-72
2024/01/17 01:38:53;;;;;;;30.97;22.67;;;12.80;77.10;;;;;;4591746;19;20401;-72
2024/01/17 01:40:28;;;;;;;30.57;21.47;;;12.80;77.60;;;;;;4591708;19;20389;-72
2024/01/17 01:42:05;;;;;;;30.77;21.10;;;12.90;78.00;;;;;;4592054;19;20491;-72
2024/01/17 01:43:39;;;;;;;30.00;21.63;;;12.80;78.10;;;;;;4591624;19;20409;-72
2024/01/17 01:45:14;;;;;;;28.80;20.80;;;12.90;78.10;;;;;;4591909;19;20393;-72
2024/01/17 01:46:52;;;;;;;30.17;20.77;;;12.90;78.20;;;;;;4591259;19;20424;-72
2024/01/17 01:48:25;;;;;;;27.10;20.60;;;12.90;78.20;;;;;;4590245;19;20396;-72
2024/01/17 01:50:00;;;;;;;28.40;20.07;;;12.90;78.20;;;;;;4590212;19;20427;-72
2024/01/17 01:51:35;;;;;;;30.20;21.10;;;12.90;78.20;;;;;;4590247;19;20374;-72
2024/01/17 01:53:08;;;;;;;32.60;21.57;;;12.90;78.10;;;;;;4590186;19;20392;-72
2024/01/17 01:54:42;;;;;;;31.10;21.13;;;12.90;78.10;;;;;;4591462;19;20954;-72
2024/01/17 01:56:19;;;;;;;29.17;21.63;;;12.90;78.10;;;;;;4591988;19;20439;-72
2024/01/17 01:57:54;;;;;;;26.33;19.93;;;12.90;78.10;;;;;;4590202;19;20388;-72
2024/01/17 01:59:28;;;;;;;28.07;19.70;;;12.90;78.10;;;;;;4591131;19;20435;-72
2024/01/17 02:01:02;;;;;;;30.30;21.33;;;12.90;78.10;;;;;;4591665;19;20432;-72
2024/01/17 02:02:37;;;;;;;27.60;19.63;;;12.90;78.00;;;;;;4591454;19;20373;-72
2024/01/17 02:04:11;;;;;;;29.03;20.63;;;12.90;78.00;;;;;;4590254;19;20437;-72
2024/01/17 02:05:44;;;;;;;26.77;20.50;;;12.90;78.00;;;;;;4590762;19;20037;-72
2024/01/17 02:07:21;;;;;;;28.83;20.00;;;13.00;77.90;;;;;;4589121;19;20492;-72
2024/01/17 02:08:55;;;;;;;23.77;18.70;;;12.90;77.80;;;;;;4590184;19;20466;-72
2024/01/17 02:10:30;;;;;;;27.30;20.33;;;12.90;77.70;;;;;;4590126;19;20495;-72
2024/01/17 02:12:05;;;;;;;27.33;18.80;;;13.00;77.80;;;;;;4589838;19;20923;-72
2024/01/17 02:13:40;;;;;;;28.17;21.27;;;12.90;77.80;;;;;;4591160;19;20511;-72
2024/01/17 02:15:14;;;;;;;30.57;21.20;;;12.90;77.80;;;;;;4589733;19;20417;-72
2024/01/17 02:16:49;;;;;;;27.03;18.57;;;12.90;77.80;;;;;;4590034;19;20560;-72
2024/01/17 02:18:23;;;;;;;28.20;20.17;;;13.00;77.90;;;;;;4591142;19;20701;-72
2024/01/17 02:19:59;;;;;;;34.70;25.20;;;13.00;77.70;;;;;;4591379;19;20437;-72
2024/01/17 02:21:35;;;;;;;38.43;28.40;;;12.90;77.70;;;;;;4591253;19;20392;-72
2024/01/17 02:23:27;;;;;;;46.20;31.57;;;12.90;77.60;;;;;;4590955;19;20428;-72
2024/01/17 02:25:07;;;;;;;49.58;35.80;;;12.90;77.60;;;;;;4591987;19;20437;-72
2024/01/17 02:26:43;;;;;;;39.45;29.45;;;12.90;77.50;;;;;;4592652;19;20379;-72
2024/01/17 02:28:18;;;;;;;35.63;27.27;;;12.90;77.70;;;;;;4594407;19;20002;-72
2024/01/17 02:29:53;;;;;;;43.30;33.03;;;12.80;77.60;;;;;;4595335;19;20484;-73
2024/01/17 02:31:29;;;;;;;39.37;30.70;;;12.80;77.60;;;;;;4595423;19;20411;-72
2024/01/17 02:33:04;;;;;;;42.07;33.50;;;12.80;77.70;;;;;;4595670;19;20401;-72
2024/01/17 02:34:39;;;;;;;43.13;34.13;;;12.80;77.70;;;;;;4595534;19;20435;-72
2024/01/17 02:36:15;;;;;;;60.40;46.43;;;12.90;77.70;;;;;;4595136;19;20019;-72
2024/01/17 02:37:49;;;;;;;65.27;50.10;;;12.80;77.60;;;;;;4595529;19;20401;-72
2024/01/17 02:39:24;;;;;;;57.17;46.33;;;12.80;77.50;;;;;;4593890;19;21048;-72
2024/01/17 02:41:01;;;;;;;52.40;41.50;;;12.80;77.40;;;;;;4594993;19;20449;-72
2024/01/17 02:42:36;;;;;;;48.37;35.47;;;12.80;77.10;;;;;;4595471;19;20447;-72
2024/01/17 02:44:11;;;;;;;43.40;32.13;;;12.80;77.10;;;;;;4595451;19;20449;-72
2024/01/17 02:45:47;;;;;;;32.83;24.13;;;12.80;77.00;;;;;;4594679;19;20407;-72
2024/01/17 02:47:24;;;;;;;25.80;19.17;;;12.80;76.90;;;;;;4593711;19;20453;-72
2024/01/17 02:49:00;;;;;;;24.00;18.10;;;12.80;76.90;;;;;;4595414;19;20384;-72
2024/01/17 02:50:35;;;;;;;23.93;18.90;;;12.80;76.80;;;;;;4593752;19;20697;-72
2024/01/17 02:52:10;;;;;;;29.10;20.20;;;12.80;76.60;;;;;;4593697;19;20457;-72
2024/01/17 02:53:46;;;;;;;27.93;19.40;;;12.80;76.40;;;;;;4594683;19;20377;-72
2024/01/17 02:55:23;;;;;;;36.43;26.23;;;12.70;76.40;;;;;;4594944;19;20697;-72
2024/01/17 02:56:57;;;;;;;33.83;24.43;;;12.70;76.40;;;;;;4594071;19;20027;-72
2024/01/17 02:58:34;;;;;;;33.70;24.63;;;12.70;76.30;;;;;;4594993;19;20404;-72
2024/01/17 03:00:09;;;;;;;34.47;23.70;;;12.70;76.30;;;;;;4595118;19;20419;-72
2024/01/17 03:01:46;;;;;;;30.83;22.33;;;12.70;76.20;;;;;;4595132;19;20918;-72
2024/01/17 03:03:22;;;;;;;26.30;18.87;;;12.70;76.10;;;;;;4594908;19;20369;-72
2024/01/17 03:04:57;;;;;;;25.33;19.50;;;12.70;76.10;;;;;;4594793;19;20511;-72
2024/01/17 03:06:31;;;;;;;26.10;18.93;;;12.70;76.10;;;;;;4593376;19;20482;-72
2024/01/17 03:08:08;;;;;;;26.30;18.83;;;12.70;76.10;;;;;;4594997;19;20427;-72
2024/01/17 03:09:43;;;;;;;30.97;21.83;;;12.70;76.00;;;;;;4593617;19;20709;-72
2024/01/17 03:11:18;;;;;;;25.90;20.57;;;12.70;76.10;;;;;;4594655;19;20492;-72
2024/01/17 03:12:54;;;;;;;26.27;18.83;;;12.70;75.90;;;;;;4594698;19;20677;-72
2024/01/17 03:14:31;;;;;;;23.63;17.57;;;12.70;75.80;;;;;;4594923;19;20736;-72
2024/01/17 03:16:05;;;;;;;25.43;17.63;;;12.70;76.00;;;;;;4594642;19;20391;-72
2024/01/17 03:17:42;;;;;;;28.30;18.37;;;12.70;75.80;;;;;;4592909;19;20429;-72
2024/01/17 03:19:17;;;;;;;27.10;17.57;;;12.70;75.80;;;;;;4594457;19;20528;-72
2024/01/17 03:20:52;;;;;;;35.23;21.63;;;12.60;75.60;;;;;;4594728;19;20909;-72
2024/01/17 03:22:28;;;;;;;34.17;21.47;;;12.70;75.70;;;;;;4594869;19;20437;-72
2024/01/17 03:24:03;;;;;;;41.57;21.90;;;12.70;75.60;;;;;;4594419;19;20380;-72
2024/01/17 03:25:38;;;;;;;38.13;22.77;;;12.60;75.40;;;;;;4594262;19;20432;-72
2024/01/17 03:27:14;;;;;;;33.87;18.90;;;12.60;75.30;;;;;;4592219;19;20429;-72
2024/01/17 03:28:49;;;;;;;31.67;18.10;;;12.60;75.50;;;;;;4594013;19;20419;-72
2024/01/17 03:30:24;;;;;;;45.13;29.30;;;12.60;75.60;;;;;;4594327;19;20433;-72
2024/01/17 03:32:00;;;;;;;31.33;19.77;;;12.60;75.70;;;;;;4594304;19;20755;-73
2024/01/17 03:33:35;;;;;;;29.07;20.27;;;12.60;75.80;;;;;;4594223;19;20411;-73
2024/01/17 03:35:10;;;;;;;29.20;21.90;;;12.60;75.80;;;;;;4593407;19;20401;-73
2024/01/17 03:36:46;;;;;;;28.10;21.27;;;12.60;76.00;;;;;;4593529;19;20474;-73
2024/01/17 03:38:21;;;;;;;24.53;18.90;;;12.60;76.20;;;;;;4594411;19;20400;-73
2024/01/17 03:39:57;;;;;;;30.47;22.90;;;12.60;76.30;;;;;;4594313;19;20444;-73
2024/01/17 03:41:33;;;;;;;25.20;18.40;;;12.60;76.50;;;;;;4594364;19;20373;-73
2024/01/17 03:43:08;;;;;;;24.40;18.00;;;12.60;76.80;;;;;;4594018;19;20380;-73
2024/01/17 03:44:43;;;;;;;24.40;17.00;;;12.60;77.00;;;;;;4594215;19;20424;-73
2024/01/17 03:46:19;;;;;;;27.53;18.23;;;12.60;77.00;;;;;;4593266;19;20712;-73
2024/01/17 03:47:54;;;;;;;30.13;19.90;;;12.60;77.10;;;;;;4593860;19;20409;-73
2024/01/17 03:49:29;;;;;;;28.83;21.23;;;12.60;77.20;;;;;;4593930;19;20389;-73
2024/01/17 03:51:06;;;;;;;27.63;20.40;;;12.60;77.20;;;;;;4593886;19;20696;-73
2024/01/17 03:52:40;;;;;;;28.07;21.87;;;12.60;77.20;;;;;;4592453;19;20678;-73
2024/01/17 03:54:15;;;;;;;30.50;24.53;;;12.60;77.20;;;;;;4593562;19;20460;-73
2024/01/17 03:55:51;;;;;;;28.77;20.40;;;12.60;77.30;;;;;;4593835;19;20411;-73
2024/01/17 03:57:27;;;;;;;27.50;18.10;;;12.60;77.40;;;;;;4591135;19;20544;-73
2024/01/17 03:59:02;;;;;;;25.73;18.27;;;12.60;77.50;;;;;;4593353;19;20789;-73
2024/01/17 04:00:38;;;;;;;25.87;19.20;;;12.60;77.60;;;;;;4593936;19;20495;-73
2024/01/17 04:02:14;;;;;;;40.57;24.57;;;12.60;77.70;;;;;;4593841;19;20393;-73
2024/01/17 04:03:49;;;;;;;32.50;21.60;;;12.60;77.90;;;;;;4592145;19;20507;-73
2024/01/17 04:05:25;;;;;;;44.67;26.97;;;12.60;78.10;;;;;;4593509;19;20480;-73
2024/01/17 04:07:00;;;;;;;30.37;22.13;;;12.60;78.20;;;;;;4592694;19;20461;-72
2024/01/17 04:08:35;;;;;;;26.23;18.90;;;12.60;78.40;;;;;;4593421;19;20424;-73
2024/01/17 04:10:12;;;;;;;23.80;17.20;;;12.60;78.60;;;;;;4593722;19;20419;-73
2024/01/17 04:11:47;;;;;;;22.50;16.20;;;12.60;79.30;;;;;;4593386;19;20459;-73
2024/01/17 04:13:22;;;;;;;22.97;17.07;;;12.60;78.80;;;;;;4593337;19;20725;-73
2024/01/17 04:14:58;;;;;;;19.47;16.17;;;12.60;78.90;;;;;;4593340;19;20405;-73
2024/01/17 04:16:35;;;;;;;25.50;17.77;;;12.60;79.20;;;;;;4592689;19;20429;-73
2024/01/17 04:18:10;;;;;;;24.23;17.57;;;12.60;79.20;;;;;;4591977;19;20373;-73
2024/01/17 04:19:46;;;;;;;24.67;18.03;;;12.60;79.30;;;;;;4592996;19;20022;-73
2024/01/17 04:21:21;;;;;;;23.50;17.40;;;12.60;79.50;;;;;;4591696;19;20417;-72
2024/01/17 04:22:56;;;;;;;25.23;17.80;;;12.60;79.50;;;;;;4593049;19;20975;-72
2024/01/17 04:24:32;;;;;;;26.73;18.60;;;12.60;79.80;;;;;;4593092;19;20401;-73
2024/01/17 04:26:07;;;;;;;24.63;17.77;;;12.60;79.80;;;;;;4590986;19;20931;-73
2024/01/17 04:27:42;;;;;;;27.23;17.03;;;12.60;80.00;;;;;;4592684;19;20416;-72
2024/01/17 04:29:18;;;;;;;23.67;17.23;;;12.60;80.00;;;;;;4591703;19;20399;-73
2024/01/17 04:30:53;;;;;;;25.00;17.50;;;12.60;80.10;;;;;;4591909;19;20922;-73
2024/01/17 04:32:28;;;;;;;27.77;18.23;;;12.60;80.20;;;;;;4592520;19;20405;-72
2024/01/17 04:34:03;;;;;;;24.30;16.67;;;12.60;80.20;;;;;;4592601;19;20481;-73
2024/01/17 04:35:37;;;;;;;23.17;15.80;;;12.60;80.30;;;;;;4592867;19;20794;-73
2024/01/17 04:37:11;;;;;;;23.80;17.27;;;12.60;80.30;;;;;;4591999;19;20457;-72
2024/01/17 04:38:46;;;;;;;22.03;15.30;;;12.60;80.50;;;;;;4592929;19;20373;-72
2024/01/17 04:40:21;;;;;;;23.57;16.63;;;12.70;80.80;;;;;;4593069;19;20404;-72
2024/01/17 04:41:56;;;;;;;25.60;18.13;;;12.80;80.90;;;;;;4592759;19;20969;-72
2024/01/17 04:43:33;;;;;;;25.47;17.37;;;12.90;80.50;;;;;;4593066;19;21003;-72
2024/01/17 04:45:09;;;;;;;23.73;15.73;;;13.00;80.20;;;;;;4592665;19;20468;-72
2024/01/17 04:46:43;;;;;;;26.80;17.87;;;13.10;80.00;;;;;;4589321;19;20461;-72
2024/01/17 04:48:19;;;;;;;24.87;17.10;;;13.20;79.80;;;;;;4592662;19;20366;-72
2024/01/17 04:49:53;;;;;;;22.57;17.10;;;13.30;79.60;;;;;;4592838;19;20396;-72
2024/01/17 04:51:28;;;;;;;25.77;19.13;;;13.40;79.40;;;;;;4591259;19;20401;-72
2024/01/17 04:53:03;;;;;;;28.23;19.53;;;13.50;79.10;;;;;;4592296;19;20002;-72
2024/01/17 04:54:39;;;;;;;26.17;19.13;;;13.60;79.00;;;;;;4592787;19;20504;-72
2024/01/17 04:56:14;;;;;;;25.90;19.13;;;13.60;78.70;;;;;;4592289;19;20401;-72
2024/01/17 04:57:49;;;;;;;23.87;17.13;;;13.70;79.10;;;;;;4591183;19;20011;-72
2024/01/17 04:59:23;;;;;;;25.33;18.40;;;13.70;78.40;;;;;;4592170;19;20002;-72
2024/01/17 05:00:58;;;;;;;26.33;18.40;;;13.80;78.40;;;;;;4592450;19;20002;-73
2024/01/17 05:02:35;;;;;;;26.30;17.80;;;13.80;78.40;;;;;;4592789;19;20023;-72
2024/01/17 05:04:09;;;;;;;26.50;18.73;;;13.80;78.20;;;;;;4592668;19;20009;-72
2024/01/17 05:05:48;;;;;;;26.90;17.70;;;13.80;78.20;;;;;;4591194;19;20038;-71
2024/01/17 05:07:23;;;;;;;26.07;18.13;;;13.80;77.90;;;;;;4591638;19;20006;-72
2024/01/17 05:08:57;;;;;;;25.10;18.10;;;13.80;78.00;;;;;;4592250;19;20005;-72
2024/01/17 05:10:32;;;;;;;24.00;17.83;;;13.80;78.20;;;;;;4592518;19;20006;-72
2024/01/17 05:12:08;;;;;;;25.63;18.73;;;13.80;79.40;;;;;;4592311;19;20013;-72
2024/01/17 05:13:42;;;;;;;29.47;19.93;;;13.80;78.90;;;;;;4592198;19;19998;-71
2024/01/17 05:15:16;;;;;;;30.30;20.70;;;13.70;79.20;;;;;;4590818;19;20040;-71
2024/01/17 05:16:51;;;;;;;32.73;22.20;;;13.70;79.10;;;;;;4589802;19;20025;-72
2024/01/17 05:18:25;;;;;;;32.40;20.13;;;13.70;79.20;;;;;;4591851;19;20002;-71
2024/01/17 05:20:01;;;;;;;28.77;19.13;;;13.70;79.10;;;;;;4592175;19;20058;-71
2024/01/17 05:21:37;;;;;;;29.53;19.80;;;13.60;79.10;;;;;;4592149;19;20007;-71
2024/01/17 05:23:11;;;;;;;27.33;17.33;;;13.60;79.10;;;;;;4592052;19;19995;-71
2024/01/17 05:24:46;;;;;;;25.67;18.17;;;13.60;79.20;;;;;;4592002;19;20058;-71
2024/01/17 05:26:21;;;;;;;24.43;16.63;;;13.70;79.10;;;;;;4591217;19;20071;-71
2024/01/17 05:27:54;;;;;;;21.07;16.43;;;13.70;79.00;;;;;;4592193;19;20003;-71
2024/01/17 05:29:30;;;;;;;46.03;34.87;;;13.70;78.90;;;;;;4591963;19;20363;-71
2024/01/17 05:31:07;;;;;;;105.90;82.83;;;13.70;78.70;;;;;;4591926;19;20070;-71
2024/01/17 05:32:41;;;;;;;60.07;47.17;;;13.80;78.80;;;;;;4592099;19;20427;-71
2024/01/17 05:34:16;;;;;;;66.47;53.63;;;13.80;78.80;;;;;;4591871;19;20002;-71
2024/01/17 05:35:51;;;;;;;74.70;61.40;;;13.80;78.50;;;;;;4592119;19;20476;-71
2024/01/17 05:37:28;;;;;;;77.17;64.53;;;13.90;78.50;;;;;;4590685;19;20017;-71
2024/01/17 05:39:04;;;;;;;87.63;70.80;;;13.90;78.40;;;;;;4591728;19;20019;-71
2024/01/17 05:40:39;;;;;;;58.17;38.23;;;13.90;78.10;;;;;;4591893;19;20416;-71
2024/01/17 05:42:13;;;;;;;47.50;32.83;;;14.00;77.90;;;;;;4590255;19;20003;-70
2024/01/17 05:43:48;;;;;;;49.30;33.53;;;14.00;77.70;;;;;;4591477;19;20404;-71
2024/01/17 05:45:24;;;;;;;47.07;32.23;;;14.00;77.80;;;;;;4591627;19;20400;-71
2024/01/17 05:46:58;;;;;;;49.83;33.47;;;14.00;77.50;;;;;;4590134;19;20006;-71
2024/01/17 05:48:34;;;;;;;47.87;32.83;;;14.00;77.40;;;;;;4591765;19;20007;-71
2024/01/17 05:50:11;;;;;;;36.00;24.73;;;14.00;77.40;;;;;;4591746;19;20373;-71
2024/01/17 05:51:46;;;;;;;23.10;17.00;;;14.00;77.40;;;;;;4591843;19;20513;-71
2024/01/17 05:53:20;;;;;;;26.03;18.23;;;14.00;77.20;;;;;;4591703;19;20515;-73
2024/01/17 05:54:56;;;;;;;30.33;20.47;;;14.00;77.10;;;;;;4591390;19;20428;-71
2024/01/17 05:56:30;;;;;;;29.40;19.47;;;14.00;77.00;;;;;;4590914;19;20006;-71
2024/01/17 05:58:04;;;;;;;28.60;19.17;;;13.90;77.00;;;;;;4592561;19;20002;-71
2024/01/17 05:59:39;;;;;;;26.53;19.00;;;13.90;76.90;;;;;;4596907;19;20012;-72
2024/01/17 06:01:14;;;;;;;31.20;21.87;;;13.80;76.80;;;;;;4596013;19;19998;-70
2024/01/17 06:02:49;;;;;;;26.70;20.07;;;13.80;76.70;;;;;;4596059;19;20025;-72
2024/01/17 06:04:25;;;;;;;27.60;20.87;;;13.80;76.70;;;;;;4596283;19;20026;-72
2024/01/17 06:05:59;;;;;;;24.67;19.20;;;13.70;76.60;;;;;;4595580;19;20412;-73
2024/01/17 06:07:32;;;;;;;29.33;18.97;;;13.80;76.70;;;;;;4594051;19;20010;-72
2024/01/17 06:09:08;;;;;;;27.33;18.20;;;13.70;76.70;;;;;;4596331;19;20934;-71
2024/01/17 06:10:42;;;;;;;24.77;16.97;;;13.70;76.80;;;;;;4595675;19;20556;-73
2024/01/17 06:12:16;;;;;;;25.27;17.90;;;13.70;76.80;;;;;;4595984;19;20334;-72
2024/01/17 06:13:53;;;;;;;25.07;17.37;;;13.80;76.80;;;;;;4595689;19;20003;-71
2024/01/17 06:15:27;;;;;;;27.47;19.53;;;13.80;76.80;;;;;;4595602;19;20007;-72
2024/01/17 06:17:01;;;;;;;25.23;18.53;;;13.80;76.70;;;;;;4594184;19;20015;-71
2024/01/17 06:18:37;;;;;;;26.60;18.70;;;13.80;76.90;;;;;;4595908;19;20426;-71
2024/01/17 06:20:12;;;;;;;25.00;17.53;;;13.80;77.10;;;;;;4595853;19;20058;-71
2024/01/17 06:21:46;;;;;;;24.00;18.07;;;13.90;76.70;;;;;;4595485;19;20036;-71
2024/01/17 06:23:23;;;;;;;29.17;19.57;;;13.90;76.60;;;;;;4595773;19;20011;-71
2024/01/17 06:24:57;;;;;;;25.73;18.23;;;13.90;77.00;;;;;;4595655;19;20704;-71
2024/01/17 06:26:30;;;;;;;27.43;18.43;;;13.80;76.20;;;;;;4594327;19;20722;-71
2024/01/17 06:28:07;;;;;;;28.23;19.90;;;13.80;76.10;;;;;;4594330;19;20007;-71
2024/01/17 06:29:45;;;;;;;29.87;19.20;;;13.80;75.90;;;;;;4595070;19;20406;-71
2024/01/17 06:31:25;;;;;;;26.53;18.83;;;13.70;75.80;;;;;;4595663;19;20377;-71
2024/01/17 06:32:59;;;;;;;29.60;20.23;;;13.70;75.90;;;;;;4595298;19;19998;-71
2024/01/17 06:34:32;;;;;;;27.43;21.77;;;13.60;75.80;;;;;;4595548;19;20002;-71
2024/01/17 06:36:08;;;;;;;36.13;27.47;;;13.60;75.80;;;;;;4595281;19;20446;-71
2024/01/17 06:37:43;;;;;;;33.97;24.47;;;13.60;75.70;;;;;;4595194;19;19995;-71
2024/01/17 06:39:18;;;;;;;30.53;21.53;;;13.50;75.60;;;;;;4595328;19;20369;-71
2024/01/17 06:40:52;;;;;;;31.27;23.27;;;13.50;75.60;;;;;;4595025;19;20334;-71
2024/01/17 06:42:26;;;;;;;32.80;24.70;;;13.50;75.80;;;;;;4595038;19;20434;-71
2024/01/17 06:44:01;;;;;;;30.97;23.17;;;13.50;75.10;;;;;;4594973;19;20013;-71
2024/01/17 06:45:36;;;;;;;30.93;21.43;;;13.40;75.20;;;;;;4595104;19;20423;-71
2024/01/17 06:47:10;;;;;;;28.33;20.20;;;13.40;74.70;;;;;;4593708;19;20794;-71
2024/01/17 06:48:47;;;;;;;28.63;20.03;;;13.30;74.50;;;;;;4594990;19;20394;-71
2024/01/17 06:50:22;;;;;;;26.93;19.00;;;13.30;74.40;;;;;;4595121;19;20508;-71
2024/01/17 06:51:57;;;;;;;27.47;19.63;;;13.30;74.10;;;;;;4594824;19;20010;-71
2024/01/17 06:53:34;;;;;;;29.47;21.13;;;13.30;74.00;;;;;;4593761;19;20382;-71
2024/01/17 06:55:08;;;;;;;30.67;20.97;;;13.20;74.00;;;;;;4594733;19;20426;-71
2024/01/17 06:56:44;;;;;;;27.93;20.27;;;13.20;73.70;;;;;;4594065;19;20023;-71
2024/01/17 06:58:20;;;;;;;32.87;23.07;;;13.20;73.60;;;;;;4594807;19;20416;-71
2024/01/17 06:59:54;;;;;;;29.40;20.80;;;13.20;73.40;;;;;;4594747;19;20425;-71
2024/01/17 07:01:29;;;;;;;29.93;21.80;;;13.20;73.50;;;;;;4594699;19;20408;-71
2024/01/17 07:03:05;;;;;;;28.73;21.13;;;13.10;73.20;;;;;;4594658;19;20420;-71
2024/01/17 07:04:41;;;;;;;27.57;20.97;;;13.10;73.10;;;;;;4593333;19;20025;-71
2024/01/17 07:06:15;;;;;;;27.57;18.97;;;13.10;72.90;;;;;;4593424;19;20401;-71
2024/01/17 07:07:51;;;;;;;27.63;19.57;;;13.10;72.90;;;;;;4593381;19;20389;-71
2024/01/17 07:09:25;;;;;;;26.73;21.37;;;13.10;72.70;;;;;;4593744;19;20910;-71
2024/01/17 07:11:00;;;;;;;30.37;20.83;;;13.00;72.50;;;;;;4593885;19;20392;-71
2024/01/17 07:12:35;;;;;;;29.83;20.83;;;13.00;72.40;;;;;;4594849;19;20419;-71
2024/01/17 07:14:09;;;;;;;25.67;20.17;;;13.00;72.40;;;;;;4594438;19;20931;-71
2024/01/17 07:15:43;;;;;;;31.70;21.57;;;13.00;72.40;;;;;;4594680;19;20385;-71
2024/01/17 07:17:18;;;;;;;27.13;19.40;;;13.00;72.30;;;;;;4593103;19;20473;-71
2024/01/17 07:18:53;;;;;;;27.50;19.77;;;12.90;72.20;;;;;;4594625;19;20981;-71
2024/01/17 07:20:27;;;;;;;26.50;20.73;;;12.90;72.20;;;;;;4594309;19;20393;-71
2024/01/17 07:22:04;;;;;;;30.13;20.53;;;12.90;72.10;;;;;;4594653;19;20751;-71
2024/01/17 07:23:42;;;;;;;26.60;20.10;;;12.90;71.90;;;;;;4594479;19;20436;-71
2024/01/17 07:25:17;;;;;;;28.40;19.93;;;12.90;71.90;;;;;;4594464;19;20697;-71
2024/01/17 07:26:52;;;;;;;26.30;18.67;;;12.90;72.10;;;;;;4592993;19;20449;-71
2024/01/17 07:28:26;;;;;;;29.67;20.47;;;12.80;72.10;;;;;;4594313;19;20427;-71
2024/01/17 07:30:00;;;;;;;27.67;19.17;;;12.80;72.00;;;;;;4594135;19;20431;-71
2024/01/17 07:31:37;;;;;;;27.50;19.37;;;12.80;71.90;;;;;;4594413;19;20400;-71
2024/01/17 07:33:12;;;;;;;25.70;18.23;;;12.80;72.00;;;;;;4594045;19;20432;-71
2024/01/17 07:34:46;;;;;;;29.80;20.53;;;12.80;72.10;;;;;;4592681;19;20436;-71
2024/01/17 07:36:21;;;;;;;29.13;19.97;;;12.80;72.10;;;;;;4593438;19;20405;-71
2024/01/17 07:37:58;;;;;;;26.27;18.13;;;12.80;72.00;;;;;;4593938;19;20422;-71
2024/01/17 07:39:32;;;;;;;26.27;18.77;;;12.80;72.00;;;;;;4593937;19;20006;-71
2024/01/17 07:41:08;;;;;;;28.13;18.93;;;12.70;72.00;;;;;;4593902;19;20366;-71
2024/01/17 07:42:43;;;;;;;25.70;18.53;;;12.80;72.10;;;;;;4593804;19;20425;-71
2024/01/17 07:44:17;;;;;;;29.17;19.60;;;12.80;72.00;;;;;;4592509;19;20385;-71
2024/01/17 07:45:56;;;;;;;28.43;19.07;;;12.70;72.00;;;;;;4593362;19;20377;-71
2024/01/17 07:47:30;;;;;;;32.10;20.13;;;12.70;72.00;;;;;;4591171;19;20526;-71
2024/01/17 07:49:04;;;;;;;31.57;21.23;;;12.70;72.00;;;;;;4593664;19;20421;-71
2024/01/17 07:50:39;;;;;;;29.23;19.60;;;12.70;72.10;;;;;;4593852;19;20403;-71
2024/01/17 07:52:14;;;;;;;30.47;20.67;;;12.70;72.10;;;;;;4593771;19;21007;-71
2024/01/17 07:53:49;;;;;;;30.73;21.20;;;12.70;72.50;;;;;;4593970;19;20488;-71
2024/01/17 07:55:24;;;;;;;27.23;19.70;;;12.70;72.40;;;;;;4593803;19;20898;-71
2024/01/17 07:56:59;;;;;;;28.47;18.30;;;12.70;72.30;;;;;;4592736;19;20445;-71
2024/01/17 07:58:33;;;;;;;28.23;19.40;;;12.70;72.50;;;;;;4592583;19;20457;-71
2024/01/17 08:00:11;;;;;;;28.33;19.93;;;12.70;72.50;;;;;;4592317;19;20373;-71
2024/01/17 08:01:46;;;;;;;34.33;23.10;;;12.70;72.40;;;;;;4593333;19;20385;-71
2024/01/17 08:03:19;;;;;;;35.40;23.97;;;12.70;72.10;;;;;;4593528;19;20448;-72
2024/01/17 08:04:56;;;;;;;35.57;24.17;;;12.70;72.20;;;;;;4593561;19;20906;-72
2024/01/17 08:06:31;;;;;;;52.10;32.83;;;12.70;72.20;;;;;;4592549;19;20837;-72
2024/01/17 08:08:06;;;;;;;46.17;28.67;;;12.70;72.20;;;;;;4593692;19;20393;-70
2024/01/17 08:09:41;;;;;;;45.30;28.73;;;12.70;72.70;;;;;;4593740;19;20473;-76
2024/01/17 08:11:16;;;;;;;43.60;30.03;;;12.70;72.10;;;;;;4593320;19;20388;-75
2024/01/17 08:12:50;;;;;;;45.80;31.53;;;12.70;72.00;;;;;;4593294;19;20396;-75
2024/01/17 08:14:25;;;;;;;47.57;30.13;;;12.70;72.00;;;;;;4593368;19;20365;-71
2024/01/17 08:16:01;;;;;;;49.60;30.90;;;12.70;72.00;;;;;;4591795;19;20539;-71
2024/01/17 08:17:35;;;;;;;40.70;25.10;;;12.70;71.90;;;;;;4591801;19;20451;-73